Time;durP1;ratioP1;P1;durP2;ratioP2;P2;SDS_P1;SDS_P2;PMS_P1;PMS_P2;Temp;Humidity;BMP_temperature;BMP_pressure;BME280_temperature;BME280_humidity;BME280_pressure;Samples;Min_cycle;Max_cycle;Signal;HPM_P1;HPM_P2
2022/04/10 00:01:46;;;;;;;7.47;3.60;;;;;;;;;;5073872;28;20516;-87
2022/04/10 00:04:12;;;;;;;7.97;3.70;;;;;;;;;;5076822;28;20452;-88
2022/04/10 00:06:38;;;;;;;6.27;3.73;;;;;;;;;;5066358;28;20428;-88
2022/04/10 00:09:04;;;;;;;5.40;3.50;;;;;;;;;;5065535;28;20398;-87
2022/04/10 00:11:30;;;;;;;8.80;3.50;;;;;;;;;;5063063;28;20560;-87
2022/04/10 00:13:56;;;;;;;4.50;3.37;;;;;;;;;;5045791;28;20437;-87
2022/04/10 00:16:22;;;;;;;7.27;3.53;;;;;;;;;;5063602;28;20479;-88
2022/04/10 00:18:48;;;;;;;7.03;3.90;;;;;;;;;;5063490;28;20893;-88
2022/04/10 00:21:15;;;;;;;7.10;3.70;;;;;;;;;;5064173;28;20453;-87
2022/04/10 00:23:41;;;;;;;5.40;4.00;;;;;;;;;;5063546;28;20422;-88
2022/04/10 00:26:09;;;;;;;5.00;3.17;;;;;;;;;;5045855;28;20940;-88
2022/04/10 00:28:35;;;;;;;4.37;3.50;;;;;;;;;;5064156;28;20881;-88
2022/04/10 00:31:01;;;;;;;5.87;3.20;;;;;;;;;;5063869;28;20413;-88
2022/04/10 00:33:27;;;;;;;8.53;3.57;;;;;;;;;;5046531;28;20949;-88
2022/04/10 00:35:53;;;;;;;7.30;3.37;;;;;;;;;;5067969;28;20412;-87
2022/04/10 00:38:20;;;;;;;3.70;2.60;;;;;;;;;;5065037;28;20405;-87
2022/04/10 00:40:46;;;;;;;6.13;4.00;;;;;;;;;;5059681;28;20409;-88
2022/04/10 00:43:12;;;;;;;6.40;3.17;;;;;;;;;;5058539;28;20426;-87
2022/04/10 00:45:38;;;;;;;4.87;3.60;;;;;;;;;;5060227;28;20464;-87
2022/04/10 00:48:04;;;;;;;6.53;3.03;;;;;;;;;;5060926;28;20424;-88
2022/04/10 00:50:32;;;;;;;4.93;3.30;;;;;;;;;;5061862;28;20410;-88
2022/04/10 00:52:59;;;;;;;4.50;3.33;;;;;;;;;;5061886;28;20449;-88
2022/04/10 00:55:25;;;;;;;5.53;3.33;;;;;;;;;;5062224;28;20415;-88
2022/04/10 00:57:51;;;;;;;4.43;3.40;;;;;;;;;;5062552;28;20859;-88
2022/04/10 01:00:17;;;;;;;7.30;3.70;;;;;;;;;;5062207;28;20397;-88
2022/04/10 01:02:43;;;;;;;4.83;3.73;;;;;;;;;;5062172;28;20464;-88
2022/04/10 01:05:10;;;;;;;5.23;3.40;;;;;;;;;;5063380;28;20410;-88
2022/04/10 01:07:36;;;;;;;6.43;4.00;;;;;;;;;;5061931;28;20441;-88
2022/04/10 01:10:02;;;;;;;5.53;3.27;;;;;;;;;;5044717;28;20443;-85
2022/04/10 01:12:29;;;;;;;4.97;3.90;;;;;;;;;;5062916;28;20479;-88
2022/04/10 01:14:55;;;;;;;9.27;3.93;;;;;;;;;;5061984;28;20421;-88
2022/04/10 01:17:21;;;;;;;9.93;4.07;;;;;;;;;;5062692;28;20501;-88
2022/04/10 01:19:47;;;;;;;4.60;3.23;;;;;;;;;;5062636;28;20417;-88
2022/04/10 01:22:35;;;;;;;5.73;3.90;;;;;;;;;;5062264;28;20457;-88
2022/04/10 01:25:05;;;;;;;9.70;4.93;;;;;;;;;;5061691;28;20436;-88
2022/04/10 01:27:35;;;;;;;7.50;3.77;;;;;;;;;;5061516;28;20449;-88
2022/04/10 01:30:01;;;;;;;4.70;3.33;;;;;;;;;;5046939;28;20430;-88
2022/04/10 01:32:27;;;;;;;9.23;3.80;;;;;;;;;;5040549;28;20804;-88
2022/04/10 01:34:53;;;;;;;5.13;3.97;;;;;;;;;;5040320;28;20410;-88
2022/04/10 01:37:19;;;;;;;7.73;5.90;;;;;;;;;;5042158;28;20774;-88
2022/04/10 01:39:46;;;;;;;5.63;3.93;;;;;;;;;;5042068;28;20421;-88
2022/04/10 01:42:13;;;;;;;8.57;4.07;;;;;;;;;;5042429;28;20543;-88
2022/04/10 01:44:42;;;;;;;8.47;3.70;;;;;;;;;;5048230;28;20428;-86
2022/04/10 01:47:09;;;;;;;5.30;4.17;;;;;;;;;;5045082;28;20465;-86
2022/04/10 01:49:35;;;;;;;4.77;3.80;;;;;;;;;;5040283;28;20444;-87
2022/04/10 01:52:01;;;;;;;5.67;3.60;;;;;;;;;;5040780;28;20445;-88
2022/04/10 01:54:27;;;;;;;6.40;4.50;;;;;;;;;;5042243;28;20406;-86
2022/04/10 01:56:53;;;;;;;10.00;4.10;;;;;;;;;;5040034;28;20454;-88
2022/04/10 01:59:19;;;;;;;4.20;3.53;;;;;;;;;;5043009;28;20399;-88
2022/04/10 02:01:45;;;;;;;7.17;4.30;;;;;;;;;;5040972;28;20450;-87
2022/04/10 02:04:11;;;;;;;5.17;3.90;;;;;;;;;;5040993;28;20914;-88
2022/04/10 02:06:37;;;;;;;6.47;4.07;;;;;;;;;;5040191;28;20966;-88
2022/04/10 02:09:07;;;;;;;7.03;4.20;;;;;;;;;;5041502;28;20914;-86
2022/04/10 02:11:34;;;;;;;6.40;3.90;;;;;;;;;;5041867;28;20434;-87
2022/04/10 02:14:00;;;;;;;6.90;4.50;;;;;;;;;;5042183;28;20414;-88
2022/04/10 02:16:26;;;;;;;8.23;4.30;;;;;;;;;;5042397;28;20417;-87
2022/04/10 02:18:52;;;;;;;5.70;4.00;;;;;;;;;;5043530;28;20434;-88
2022/04/10 02:21:18;;;;;;;6.33;4.50;;;;;;;;;;5041821;28;20496;-88
2022/04/10 02:23:45;;;;;;;6.93;4.07;;;;;;;;;;5040336;28;20426;-87
2022/04/10 02:26:11;;;;;;;5.43;4.53;;;;;;;;;;5041747;28;20398;-87
2022/04/10 02:28:38;;;;;;;6.90;4.40;;;;;;;;;;5040035;28;20413;-87
2022/04/10 02:31:04;;;;;;;5.50;4.27;;;;;;;;;;5046222;28;20402;-86
2022/04/10 02:33:32;;;;;;;6.00;4.60;;;;;;;;;;5047981;28;20429;-86
2022/04/10 02:35:58;;;;;;;5.80;4.37;;;;;;;;;;5056786;28;20407;-86
2022/04/10 02:38:24;;;;;;;5.00;3.90;;;;;;;;;;5053476;28;20798;-87
2022/04/10 02:40:50;;;;;;;4.60;4.00;;;;;;;;;;5056751;28;20417;-86
2022/04/10 02:43:16;;;;;;;6.10;3.77;;;;;;;;;;5056564;28;20482;-86
2022/04/10 02:45:43;;;;;;;3.90;3.30;;;;;;;;;;5057393;28;20418;-87
2022/04/10 02:48:09;;;;;;;6.37;3.57;;;;;;;;;;5054919;28;20469;-88
2022/04/10 02:50:36;;;;;;;4.90;3.57;;;;;;;;;;5042832;28;20426;-88
2022/04/10 02:53:02;;;;;;;5.33;3.63;;;;;;;;;;5040481;28;21029;-87
2022/04/10 02:55:28;;;;;;;4.10;3.30;;;;;;;;;;5040669;28;20418;-88
2022/04/10 02:57:54;;;;;;;6.83;2.87;;;;;;;;;;5043258;28;20411;-88
2022/04/10 03:00:21;;;;;;;3.50;3.20;;;;;;;;;;5058153;28;20436;-86
2022/04/10 03:02:47;;;;;;;3.40;2.37;;;;;;;;;;5057919;28;20461;-87
2022/04/10 03:05:13;;;;;;;5.50;3.03;;;;;;;;;;5047639;28;20788;-86
2022/04/10 03:07:39;;;;;;;4.70;2.97;;;;;;;;;;5036168;28;20430;-86
2022/04/10 03:10:05;;;;;;;5.77;3.60;;;;;;;;;;5038924;28;20409;-87
2022/04/10 03:12:31;;;;;;;4.50;3.50;;;;;;;;;;5040122;28;20465;-87
2022/04/10 03:14:57;;;;;;;6.77;3.33;;;;;;;;;;5040212;28;20414;-87
2022/04/10 03:17:23;;;;;;;4.07;2.97;;;;;;;;;;5040027;28;20410;-87
2022/04/10 03:19:49;;;;;;;4.70;3.37;;;;;;;;;;5038019;28;20419;-88
2022/04/10 03:22:16;;;;;;;5.20;3.37;;;;;;;;;;5039162;28;20458;-86
2022/04/10 03:24:42;;;;;;;6.67;3.10;;;;;;;;;;5041590;28;20409;-87
2022/04/10 03:27:08;;;;;;;5.83;3.67;;;;;;;;;;5041163;28;20410;-87
2022/04/10 03:29:34;;;;;;;4.43;3.27;;;;;;;;;;5049163;28;20386;-87
2022/04/10 03:32:00;;;;;;;5.23;3.27;;;;;;;;;;5055839;28;20418;-85
2022/04/10 03:34:26;;;;;;;5.37;3.20;;;;;;;;;;5054258;28;20881;-87
2022/04/10 03:36:52;;;;;;;6.03;3.90;;;;;;;;;;5053860;28;20422;-86
2022/04/10 03:39:18;;;;;;;8.63;4.00;;;;;;;;;;5056084;28;20426;-86
2022/04/10 03:41:44;;;;;;;5.27;3.43;;;;;;;;;;5055275;28;20454;-86
2022/04/10 03:44:10;;;;;;;5.57;3.40;;;;;;;;;;5055288;28;20398;-85
2022/04/10 03:46:36;;;;;;;8.33;4.00;;;;;;;;;;5063304;28;20409;-87
2022/04/10 03:49:02;;;;;;;4.47;3.70;;;;;;;;;;5060627;28;20396;-88
2022/04/10 03:51:28;;;;;;;5.77;3.97;;;;;;;;;;5059773;28;20410;-88
2022/04/10 03:53:54;;;;;;;7.93;4.70;;;;;;;;;;5059329;28;20495;-88
2022/04/10 03:56:20;;;;;;;3.90;3.50;;;;;;;;;;5062798;28;20397;-89
2022/04/10 03:58:46;;;;;;;9.13;4.57;;;;;;;;;;5060128;28;20471;-88
2022/04/10 04:01:12;;;;;;;5.00;4.50;;;;;;;;;;5042672;28;20474;-88
2022/04/10 04:03:39;;;;;;;7.00;4.20;;;;;;;;;;5060963;28;20423;-86
2022/04/10 04:06:05;;;;;;;7.93;5.10;;;;;;;;;;5061295;28;20401;-87
2022/04/10 04:08:31;;;;;;;6.90;4.13;;;;;;;;;;5043802;28;20851;-87
2022/04/10 04:10:58;;;;;;;6.60;4.60;;;;;;;;;;5063463;28;20417;-86
2022/04/10 04:13:25;;;;;;;7.50;5.50;;;;;;;;;;5064419;28;20902;-88
2022/04/10 04:15:51;;;;;;;5.93;4.37;;;;;;;;;;5062237;28;20405;-88
2022/04/10 04:18:18;;;;;;;7.40;4.33;;;;;;;;;;5063523;28;20815;-88
2022/04/10 04:20:44;;;;;;;7.50;4.60;;;;;;;;;;5063862;28;20525;-88
2022/04/10 04:23:10;;;;;;;6.13;4.80;;;;;;;;;;5062106;28;20916;-88
2022/04/10 04:25:36;;;;;;;6.57;4.47;;;;;;;;;;5062259;28;20398;-88
2022/04/10 04:28:02;;;;;;;4.93;4.43;;;;;;;;;;5047069;28;20492;-88
2022/04/10 04:30:28;;;;;;;6.90;4.83;;;;;;;;;;5064042;28;20421;-88
2022/04/10 04:32:56;;;;;;;6.67;4.30;;;;;;;;;;5047299;28;20484;-86
2022/04/10 04:35:23;;;;;;;7.40;4.60;;;;;;;;;;5046922;28;20410;-88
2022/04/10 04:37:49;;;;;;;7.07;4.57;;;;;;;;;;5062499;28;20398;-88
2022/04/10 04:40:15;;;;;;;10.00;4.70;;;;;;;;;;5062516;28;20459;-87
2022/04/10 04:42:42;;;;;;;7.27;4.17;;;;;;;;;;5044551;28;20472;-87
2022/04/10 04:45:09;;;;;;;8.13;4.23;;;;;;;;;;5063190;28;20410;-88
2022/04/10 04:47:36;;;;;;;7.50;4.53;;;;;;;;;;5061028;28;20410;-87
2022/04/10 04:50:02;;;;;;;7.80;4.67;;;;;;;;;;5042442;28;20409;-87
2022/04/10 04:52:28;;;;;;;7.67;4.90;;;;;;;;;;5060512;28;20459;-87
2022/04/10 04:54:54;;;;;;;9.53;4.40;;;;;;;;;;5100868;22;20953;-85
2022/04/10 04:57:20;;;;;;;6.40;4.30;;;;;;;;;;5053924;28;20457;-82
2022/04/10 04:59:46;;;;;;;7.90;4.60;;;;;;;;;;5048457;28;20843;-83
2022/04/10 05:02:12;;;;;;;6.00;4.43;;;;;;;;;;5046817;28;20449;-83
2022/04/10 05:04:38;;;;;;;6.40;4.07;;;;;;;;;;5063690;28;20891;-82
2022/04/10 05:07:05;;;;;;;7.77;5.33;;;;;;;;;;5046171;28;20543;-82
2022/04/10 05:09:31;;;;;;;5.70;4.20;;;;;;;;;;5063451;28;20409;-83
2022/04/10 05:11:57;;;;;;;12.03;5.23;;;;;;;;;;5062590;28;20406;-81
2022/04/10 05:14:23;;;;;;;7.40;5.07;;;;;;;;;;5062726;28;20432;-83
2022/04/10 05:16:49;;;;;;;10.57;4.97;;;;;;;;;;5063762;28;20878;-83
2022/04/10 05:19:15;;;;;;;9.30;5.13;;;;;;;;;;5045246;28;20417;-83
2022/04/10 05:21:41;;;;;;;8.57;5.20;;;;;;;;;;5062637;28;20540;-84
2022/04/10 05:24:07;;;;;;;6.23;5.07;;;;;;;;;;5045105;28;20440;-84
2022/04/10 05:26:33;;;;;;;5.83;4.43;;;;;;;;;;5044867;28;20457;-83
2022/04/10 05:28:59;;;;;;;6.90;4.60;;;;;;;;;;5063098;28;20420;-84
2022/04/10 05:31:25;;;;;;;7.30;4.47;;;;;;;;;;5045931;28;20397;-84
2022/04/10 05:33:51;;;;;;;6.93;4.30;;;;;;;;;;5045136;28;20567;-84
2022/04/10 05:36:17;;;;;;;6.53;4.43;;;;;;;;;;5061813;28;20478;-84
2022/04/10 05:38:45;;;;;;;7.70;4.97;;;;;;;;;;5062160;28;20459;-84
2022/04/10 05:41:12;;;;;;;6.97;4.50;;;;;;;;;;5062059;28;20445;-84
2022/04/10 05:43:38;;;;;;;6.20;4.73;;;;;;;;;;5044627;28;20410;-84
2022/04/10 05:46:04;;;;;;;7.17;4.50;;;;;;;;;;5062712;28;20429;-84
2022/04/10 05:48:31;;;;;;;5.83;4.57;;;;;;;;;;5062298;28;20398;-84
2022/04/10 05:50:57;;;;;;;10.03;5.20;;;;;;;;;;5044703;28;20441;-83
2022/04/10 05:53:26;;;;;;;7.00;4.27;;;;;;;;;;5067010;28;20425;-86
2022/04/10 05:55:53;;;;;;;9.30;5.10;;;;;;;;;;5048265;28;20449;-83
2022/04/10 05:58:19;;;;;;;8.23;5.40;;;;;;;;;;5067074;28;20429;-83
2022/04/10 06:00:45;;;;;;;6.83;4.70;;;;;;;;;;5062360;28;20428;-83
2022/04/10 06:03:12;;;;;;;7.67;4.93;;;;;;;;;;5065081;28;20406;-83
2022/04/10 06:05:38;;;;;;;8.97;4.33;;;;;;;;;;5062170;28;20430;-82
2022/04/10 06:08:05;;;;;;;7.87;5.30;;;;;;;;;;5062101;28;20430;-82
2022/04/10 06:10:31;;;;;;;7.80;5.57;;;;;;;;;;5067820;28;20812;-81
2022/04/10 06:13:06;;;;;;;7.43;4.43;;;;;;;;;;5064561;28;20411;-84
2022/04/10 06:15:32;;;;;;;5.20;4.10;;;;;;;;;;5065164;28;20417;-86
2022/04/10 06:17:58;;;;;;;7.93;4.90;;;;;;;;;;5064023;28;20504;-83
2022/04/10 06:20:24;;;;;;;9.33;4.40;;;;;;;;;;5068402;28;20454;-85
2022/04/10 06:22:50;;;;;;;6.17;4.53;;;;;;;;;;5045299;28;20461;-84
2022/04/10 06:25:17;;;;;;;6.63;5.00;;;;;;;;;;5062565;28;20516;-83
2022/04/10 06:27:43;;;;;;;6.23;4.00;;;;;;;;;;5063241;28;20406;-83
2022/04/10 06:30:09;;;;;;;5.50;4.87;;;;;;;;;;5047180;28;20463;-84
2022/04/10 06:32:35;;;;;;;5.20;4.47;;;;;;;;;;5062645;28;20405;-83
2022/04/10 06:35:01;;;;;;;7.20;4.97;;;;;;;;;;5061951;28;20836;-83
2022/04/10 06:37:27;;;;;;;6.10;4.70;;;;;;;;;;5064054;28;20410;-83
2022/04/10 06:39:53;;;;;;;5.87;4.67;;;;;;;;;;5063050;28;20417;-84
2022/04/10 06:42:19;;;;;;;7.53;4.60;;;;;;;;;;5062618;28;20448;-85
2022/04/10 06:44:45;;;;;;;8.03;5.20;;;;;;;;;;5044814;28;20788;-84
2022/04/10 06:47:11;;;;;;;8.40;5.00;;;;;;;;;;5064023;28;20773;-83
2022/04/10 06:49:37;;;;;;;8.17;4.93;;;;;;;;;;5062617;28;20748;-83
2022/04/10 06:52:04;;;;;;;6.47;5.57;;;;;;;;;;5062796;28;20459;-85
2022/04/10 06:54:30;;;;;;;10.20;5.17;;;;;;;;;;5049124;28;20418;-86
2022/04/10 06:56:56;;;;;;;8.20;5.50;;;;;;;;;;5062793;28;20417;-83
2022/04/10 06:59:22;;;;;;;8.13;4.20;;;;;;;;;;5061643;28;20414;-82
2022/04/10 07:01:48;;;;;;;6.97;4.90;;;;;;;;;;5062114;28;20521;-83
2022/04/10 07:04:14;;;;;;;7.07;5.10;;;;;;;;;;5064505;28;20473;-86
2022/04/10 07:06:40;;;;;;;8.03;5.40;;;;;;;;;;5048230;28;20847;-83
2022/04/10 07:09:06;;;;;;;13.10;4.93;;;;;;;;;;5065151;28;20796;-83
2022/04/10 07:11:32;;;;;;;5.83;4.90;;;;;;;;;;5048393;28;20413;-84
2022/04/10 07:13:58;;;;;;;5.40;4.60;;;;;;;;;;5051710;28;20485;-83
2022/04/10 07:16:25;;;;;;;5.83;4.93;;;;;;;;;;5069637;28;20428;-84
2022/04/10 07:18:51;;;;;;;8.87;5.10;;;;;;;;;;5062147;28;20413;-83
2022/04/10 07:23:41;;;;;;;7.10;5.33;;;;;;;;;;5063310;28;20445;-84
2022/04/10 07:24:03;;;;;;;5.40;4.67;;;;;;;;;;5061958;28;20416;-85
2022/04/10 07:26:29;;;;;;;6.40;4.50;;;;;;;;;;5060701;28;20485;-85
2022/04/10 07:28:55;;;;;;;8.60;5.93;;;;;;;;;;5044730;28;20406;-84
2022/04/10 07:31:22;;;;;;;6.50;5.73;;;;;;;;;;5047754;28;20505;-84
2022/04/10 07:33:48;;;;;;;7.30;4.83;;;;;;;;;;5066443;28;20803;-84
2022/04/10 07:36:14;;;;;;;5.73;5.13;;;;;;;;;;5065975;28;20440;-85
2022/04/10 07:38:40;;;;;;;9.70;5.60;;;;;;;;;;5065659;28;20428;-84
2022/04/10 07:41:06;;;;;;;6.30;5.50;;;;;;;;;;5065753;28;20785;-83
2022/04/10 07:43:33;;;;;;;8.27;5.70;;;;;;;;;;5066425;28;20401;-83
2022/04/10 07:48:43;;;;;;;11.57;5.80;;;;;;;;;;5066446;28;20439;-84
2022/04/10 07:51:09;;;;;;;8.50;5.73;;;;;;;;;;5065934;28;20401;-84
2022/04/10 07:53:35;;;;;;;6.00;5.40;;;;;;;;;;5069685;28;20405;-85
2022/04/10 07:56:01;;;;;;;5.67;4.47;;;;;;;;;;5049291;28;20460;-85
2022/04/10 07:58:28;;;;;;;8.50;4.97;;;;;;;;;;5048703;28;20432;-83
2022/04/10 08:00:54;;;;;;;6.67;5.30;;;;;;;;;;5058711;28;20414;-82
2022/04/10 08:03:20;;;;;;;6.50;5.83;;;;;;;;;;5023214;28;20431;-83
2022/04/10 08:05:46;;;;;;;5.30;4.60;;;;;;;;;;5039814;28;20452;-81
2022/04/10 08:08:12;;;;;;;9.00;5.37;;;;;;;;;;5042464;28;20469;-81
2022/04/10 08:10:41;;;;;;;7.13;4.70;;;;;;;;;;5042074;28;20457;-82
2022/04/10 08:13:07;;;;;;;8.10;5.33;;;;;;;;;;5022238;28;20403;-81
2022/04/10 08:15:33;;;;;;;6.17;4.00;;;;;;;;;;5020995;28;20931;-82
2022/04/10 08:17:59;;;;;;;7.30;4.40;;;;;;;;;;5005516;28;20435;-83
2022/04/10 08:20:26;;;;;;;5.60;4.93;;;;;;;;;;5041049;28;20509;-81
2022/04/10 08:22:53;;;;;;;6.80;4.50;;;;;;;;;;5040722;28;20453;-81
2022/04/10 08:25:23;;;;;;;5.00;4.30;;;;;;;;;;5042312;28;20449;-84
2022/04/10 08:27:49;;;;;;;6.67;4.63;;;;;;;;;;5043698;28;20434;-83
2022/04/10 08:30:15;;;;;;;6.30;4.30;;;;;;;;;;5024858;28;20561;-84
2022/04/10 08:32:42;;;;;;;8.77;3.83;;;;;;;;;;5033133;28;20418;-85
2022/04/10 08:35:09;;;;;;;6.00;4.43;;;;;;;;;;5047409;28;20427;-84
2022/04/10 08:37:35;;;;;;;5.07;3.93;;;;;;;;;;5045494;28;20439;-83
2022/04/10 08:40:01;;;;;;;5.17;3.67;;;;;;;;;;5045635;28;20403;-84
2022/04/10 08:42:27;;;;;;;9.40;4.43;;;;;;;;;;5027016;28;20978;-84
2022/04/10 08:44:57;;;;;;;7.03;4.40;;;;;;;;;;5045833;28;20422;-85
2022/04/10 08:47:23;;;;;;;10.23;4.43;;;;;;;;;;5027146;28;20790;-83
2022/04/10 08:49:50;;;;;;;6.10;4.10;;;;;;;;;;5045151;28;20395;-83
2022/04/10 08:52:17;;;;;;;6.20;4.43;;;;;;;;;;5045505;28;20406;-82
2022/04/10 08:54:44;;;;;;;4.83;4.33;;;;;;;;;;5045051;28;20428;-83
2022/04/10 08:57:10;;;;;;;7.60;4.50;;;;;;;;;;5027242;28;20419;-84
2022/04/10 08:59:36;;;;;;;7.17;5.23;;;;;;;;;;5043976;28;20417;-85
2022/04/10 09:02:04;;;;;;;4.70;4.10;;;;;;;;;;5044267;28;20454;-84
2022/04/10 09:04:33;;;;;;;10.70;4.70;;;;;;;;;;5043506;28;20405;-84
2022/04/10 09:07:04;;;;;;;12.20;4.50;;;;;;;;;;5043451;28;20399;-82
2022/04/10 09:09:33;;;;;;;5.73;5.17;;;;;;;;;;5043621;28;20406;-84
2022/04/10 09:11:59;;;;;;;6.37;4.50;;;;;;;;;;5042979;28;20899;-84
2022/04/10 09:14:27;;;;;;;8.03;3.90;;;;;;;;;;5025248;28;20457;-83
2022/04/10 09:17:12;;;;;;;5.27;3.13;;;;;;;;;;5028052;28;20415;-84
2022/04/10 09:19:41;;;;;;;4.47;3.43;;;;;;;;;;5024950;28;20798;-84
2022/04/10 09:22:19;;;;;;;5.37;3.83;;;;;;;;;;5026290;28;20508;-83
2022/04/10 09:25:01;;;;;;;5.17;3.70;;;;;;;;;;5025402;28;20433;-84
2022/04/10 09:27:31;;;;;;;6.00;3.33;;;;;;;;;;5043983;28;20500;-83
2022/04/10 09:29:58;;;;;;;4.50;3.30;;;;;;;;;;5043740;28;20457;-82
2022/04/10 09:32:36;;;;;;;6.13;3.10;;;;;;;;;;5042096;28;20422;-83
2022/04/10 09:35:03;;;;;;;9.43;3.37;;;;;;;;;;5043318;28;20422;-83
2022/04/10 09:37:30;;;;;;;5.60;2.97;;;;;;;;;;5024252;28;20414;-85
2022/04/10 09:40:16;;;;;;;5.43;3.10;;;;;;;;;;5042406;28;20410;-83
2022/04/10 09:42:42;;;;;;;7.33;3.53;;;;;;;;;;5040997;28;20828;-84
2022/04/10 09:45:26;;;;;;;3.47;2.67;;;;;;;;;;5042638;28;20770;-84
2022/04/10 09:47:52;;;;;;;12.13;3.23;;;;;;;;;;5041860;28;20757;-83
2022/04/10 09:50:18;;;;;;;6.20;3.30;;;;;;;;;;5040982;28;20433;-84
2022/04/10 09:52:44;;;;;;;6.20;3.13;;;;;;;;;;5041613;28;20453;-84
2022/04/10 09:55:31;;;;;;;4.97;2.77;;;;;;;;;;5042829;28;20499;-84
2022/04/10 09:58:00;;;;;;;5.03;2.77;;;;;;;;;;5042622;28;20444;-84
2022/04/10 10:00:27;;;;;;;5.93;3.63;;;;;;;;;;5041185;28;20895;-84
2022/04/10 10:02:54;;;;;;;4.83;2.90;;;;;;;;;;5041250;28;20489;-84
2022/04/10 10:05:20;;;;;;;3.60;2.80;;;;;;;;;;5043264;28;20433;-83
2022/04/10 10:07:48;;;;;;;5.10;2.33;;;;;;;;;;5025603;28;20514;-82
2022/04/10 10:10:17;;;;;;;5.67;3.10;;;;;;;;;;5023377;28;20421;-84
2022/04/10 10:12:43;;;;;;;3.73;2.50;;;;;;;;;;5040701;28;20402;-84
2022/04/10 10:15:10;;;;;;;5.20;3.00;;;;;;;;;;5043894;28;20422;-83
2022/04/10 10:17:36;;;;;;;5.17;2.60;;;;;;;;;;5041755;28;20544;-84
2022/04/10 10:20:03;;;;;;;4.53;2.47;;;;;;;;;;5023191;28;20425;-84
2022/04/10 10:22:29;;;;;;;4.03;2.67;;;;;;;;;;5040771;28;20453;-83
2022/04/10 10:25:08;;;;;;;8.07;2.70;;;;;;;;;;5046234;28;20425;-83
2022/04/10 10:27:40;;;;;;;4.90;2.73;;;;;;;;;;5024525;28;20429;-82
2022/04/10 10:30:18;;;;;;;7.13;3.00;;;;;;;;;;5045691;28;20414;-83
2022/04/10 10:32:45;;;;;;;4.30;3.07;;;;;;;;;;5026988;28;20437;-83
2022/04/10 10:35:13;;;;;;;5.70;2.90;;;;;;;;;;5042399;28;20427;-83
2022/04/10 10:37:53;;;;;;;3.03;2.37;;;;;;;;;;5023545;28;20403;-84
2022/04/10 10:40:20;;;;;;;3.30;2.37;;;;;;;;;;5040999;28;20521;-84
2022/04/10 10:42:46;;;;;;;3.40;2.70;;;;;;;;;;5043222;28;20545;-83
2022/04/10 10:45:31;;;;;;;5.70;2.47;;;;;;;;;;5040420;28;20441;-83
2022/04/10 10:48:16;;;;;;;5.30;2.60;;;;;;;;;;5040281;28;20883;-84
2022/04/10 10:50:42;;;;;;;5.33;2.30;;;;;;;;;;5041807;28;20391;-84
2022/04/10 10:53:08;;;;;;;6.20;3.13;;;;;;;;;;5045808;28;20958;-84
2022/04/10 10:55:44;;;;;;;3.20;2.20;;;;;;;;;;5058289;22;21191;-89
2022/04/10 10:58:10;;;;;;;2.80;2.03;;;;;;;;;;5015367;28;20431;-87
2022/04/10 11:00:37;;;;;;;3.63;2.00;;;;;;;;;;5038323;28;20394;-86
2022/04/10 11:03:10;;;;;;;5.03;2.97;;;;;;;;;;5038610;28;20461;-88
2022/04/10 11:05:38;;;;;;;3.30;1.87;;;;;;;;;;5045267;28;20486;-88
2022/04/10 11:08:13;;;;;;;3.03;2.23;;;;;;;;;;5028926;28;20464;-87
2022/04/10 11:10:40;;;;;;;3.50;2.33;;;;;;;;;;5045926;28;20410;-86
2022/04/10 11:13:07;;;;;;;3.80;2.30;;;;;;;;;;5045707;28;20406;-87
2022/04/10 11:15:34;;;;;;;5.97;2.30;;;;;;;;;;5025992;28;20430;-86
2022/04/10 11:18:19;;;;;;;4.03;2.27;;;;;;;;;;5044846;28;20467;-87
2022/04/10 11:20:56;;;;;;;3.27;1.77;;;;;;;;;;5043807;28;20411;-86
2022/04/10 11:23:22;;;;;;;6.20;2.37;;;;;;;;;;5044690;28;21073;-86
2022/04/10 11:25:54;;;;;;;3.20;2.03;;;;;;;;;;5046001;28;20429;-88
2022/04/10 11:28:20;;;;;;;4.60;2.70;;;;;;;;;;5044968;28;20399;-86
2022/04/10 11:30:47;;;;;;;5.33;2.57;;;;;;;;;;5043900;28;20402;-84
2022/04/10 11:33:14;;;;;;;4.73;3.20;;;;;;;;;;5027662;28;20500;-86
2022/04/10 11:35:41;;;;;;;3.27;2.90;;;;;;;;;;5045159;28;20428;-88
2022/04/10 11:38:12;;;;;;;7.80;3.70;;;;;;;;;;5045285;28;20433;-87
2022/04/10 11:40:42;;;;;;;4.50;3.50;;;;;;;;;;5046311;28;20502;-88
2022/04/10 11:43:09;;;;;;;4.20;3.57;;;;;;;;;;5047038;28;20576;-88
2022/04/10 11:45:35;;;;;;;5.90;3.30;;;;;;;;;;5047285;28;20509;-88
2022/04/10 11:48:04;;;;;;;4.90;3.63;;;;;;;;;;5047328;28;20398;-88
2022/04/10 11:50:30;;;;;;;6.20;3.20;;;;;;;;;;5048459;28;20398;-88
2022/04/10 11:53:12;;;;;;;3.40;3.10;;;;;;;;;;5030813;28;20410;-87
2022/04/10 11:55:45;;;;;;;5.97;3.77;;;;;;;;;;5049109;28;20810;-88
2022/04/10 11:58:16;;;;;;;4.27;3.40;;;;;;;;;;5059180;28;20402;-88
2022/04/10 12:00:46;;;;;;;4.20;3.20;;;;;;;;;;5051926;28;20560;-87
2022/04/10 12:03:12;;;;;;;4.30;2.83;;;;;;;;;;5048959;28;20456;-88
2022/04/10 12:05:38;;;;;;;4.47;2.73;;;;;;;;;;5048726;28;20794;-87
2022/04/10 12:08:05;;;;;;;4.10;2.93;;;;;;;;;;5048817;28;20406;-87
2022/04/10 12:10:32;;;;;;;5.97;3.40;;;;;;;;;;5049630;28;20414;-87
2022/04/10 12:12:58;;;;;;;4.83;3.40;;;;;;;;;;5047453;28;20413;-85
2022/04/10 12:15:25;;;;;;;5.57;4.10;;;;;;;;;;5060071;28;20504;-87
2022/04/10 12:18:24;;;;;;;5.13;3.50;;;;;;;;;;5057661;28;20410;-89
2022/04/10 12:20:57;;;;;;;4.80;3.10;;;;;;;;;;5005516;28;20480;-88
2022/04/10 12:23:24;;;;;;;4.00;3.20;;;;;;;;;;5046594;28;20445;-88
2022/04/10 12:25:51;;;;;;;3.27;2.97;;;;;;;;;;5028841;28;20523;-89
2022/04/10 12:28:17;;;;;;;6.20;3.43;;;;;;;;;;5046730;28;20414;-89
2022/04/10 12:30:44;;;;;;;4.17;3.33;;;;;;;;;;5053980;28;20474;-89
2022/04/10 12:33:10;;;;;;;3.87;3.10;;;;;;;;;;5058473;28;20913;-89
2022/04/10 12:35:38;;;;;;;6.33;2.87;;;;;;;;;;5047074;28;20422;-90
2022/04/10 12:38:04;;;;;;;11.57;3.03;;;;;;;;;;5050250;28;20395;-88
2022/04/10 12:40:30;;;;;;;6.53;3.73;;;;;;;;;;5058388;28;20454;-89
2022/04/10 12:42:59;;;;;;;4.30;2.47;;;;;;;;;;5059810;28;20434;-87
2022/04/10 12:45:28;;;;;;;3.80;2.30;;;;;;;;;;5042152;28;20435;-89
2022/04/10 12:47:54;;;;;;;3.70;2.50;;;;;;;;;;5059666;28;20406;-89
2022/04/10 12:50:22;;;;;;;4.40;2.87;;;;;;;;;;5059583;28;20505;-89
2022/04/10 12:52:52;;;;;;;4.73;2.97;;;;;;;;;;5059009;28;20410;-88
2022/04/10 12:55:30;;;;;;;5.60;3.43;;;;;;;;;;5049574;28;20379;-90
2022/04/10 12:58:03;;;;;;;8.13;3.00;;;;;;;;;;5028315;28;20410;-91
2022/04/10 13:00:29;;;;;;;3.93;2.80;;;;;;;;;;5046537;28;20418;-88
2022/04/10 13:02:56;;;;;;;5.57;2.83;;;;;;;;;;5045802;28;20461;-88
2022/04/10 13:05:22;;;;;;;3.10;2.80;;;;;;;;;;5027675;28;20521;-88
2022/04/10 13:07:55;;;;;;;4.70;3.17;;;;;;;;;;5045195;28;20497;-89
2022/04/10 13:10:24;;;;;;;5.17;2.90;;;;;;;;;;5045974;28;20466;-89
2022/04/10 13:12:50;;;;;;;4.37;3.30;;;;;;;;;;5045793;28;20407;-88
2022/04/10 13:15:32;;;;;;;4.37;3.07;;;;;;;;;;5044838;28;20739;-89
2022/04/10 13:17:59;;;;;;;5.00;3.37;;;;;;;;;;5044197;28;20398;-88
2022/04/10 13:20:26;;;;;;;3.53;3.10;;;;;;;;;;5043780;28;20411;-89
2022/04/10 13:22:52;;;;;;;4.63;3.20;;;;;;;;;;5044999;28;20446;-88
2022/04/10 13:25:18;;;;;;;4.70;3.60;;;;;;;;;;5048139;28;20414;-87
2022/04/10 13:27:44;;;;;;;6.67;3.23;;;;;;;;;;5039282;28;20414;-87
2022/04/10 13:30:11;;;;;;;6.00;3.40;;;;;;;;;;5039890;28;20403;-86
2022/04/10 13:32:37;;;;;;;4.77;3.63;;;;;;;;;;5040538;28;20769;-86
2022/04/10 13:35:03;;;;;;;4.07;3.67;;;;;;;;;;5022366;28;20416;-85
2022/04/10 13:37:30;;;;;;;4.00;3.27;;;;;;;;;;5041488;28;20414;-87
2022/04/10 13:39:56;;;;;;;4.37;3.40;;;;;;;;;;5040979;28;20429;-88
2022/04/10 13:42:22;;;;;;;4.73;3.50;;;;;;;;;;5040588;28;20442;-88
2022/04/10 13:44:49;;;;;;;3.70;3.20;;;;;;;;;;5039917;28;20494;-88
2022/04/10 13:47:15;;;;;;;8.43;4.23;;;;;;;;;;5040161;28;20422;-87
2022/04/10 13:49:41;;;;;;;4.93;3.70;;;;;;;;;;5040925;28;20972;-88
2022/04/10 13:52:07;;;;;;;5.40;3.60;;;;;;;;;;5042699;28;20485;-87
2022/04/10 13:54:33;;;;;;;4.53;3.27;;;;;;;;;;5057718;28;20434;-88
2022/04/10 13:56:59;;;;;;;5.30;3.93;;;;;;;;;;5058047;28;20475;-88
2022/04/10 13:59:25;;;;;;;5.30;3.30;;;;;;;;;;5032873;28;20453;-87
2022/04/10 14:01:51;;;;;;;4.30;3.03;;;;;;;;;;5043062;28;20892;-88
2022/04/10 14:04:17;;;;;;;4.63;3.13;;;;;;;;;;5043439;28;20541;-88
2022/04/10 14:06:43;;;;;;;4.97;3.37;;;;;;;;;;5042332;28;20418;-87
2022/04/10 14:09:09;;;;;;;5.07;3.40;;;;;;;;;;5042423;28;20409;-88
2022/04/10 14:11:36;;;;;;;3.53;3.03;;;;;;;;;;5025057;28;20425;-87
2022/04/10 14:14:02;;;;;;;5.13;3.47;;;;;;;;;;5042422;28;20402;-87
2022/04/10 14:16:28;;;;;;;3.60;3.03;;;;;;;;;;5042925;28;20427;-88
2022/04/10 14:18:54;;;;;;;4.53;3.40;;;;;;;;;;5054245;28;20395;-88
2022/04/10 14:21:20;;;;;;;3.63;3.30;;;;;;;;;;5042943;28;20449;-88
2022/04/10 14:23:46;;;;;;;5.13;3.30;;;;;;;;;;5042438;28;20436;-89
2022/04/10 14:26:13;;;;;;;4.90;2.93;;;;;;;;;;5042464;28;20426;-88
2022/04/10 14:28:39;;;;;;;3.70;2.80;;;;;;;;;;5025448;28;20453;-87
2022/04/10 14:31:06;;;;;;;4.53;2.93;;;;;;;;;;5043346;28;20405;-88
2022/04/10 14:33:32;;;;;;;3.77;2.57;;;;;;;;;;5044335;28;20782;-87
2022/04/10 14:35:59;;;;;;;3.90;2.60;;;;;;;;;;5037387;28;20425;-87
2022/04/10 14:38:25;;;;;;;4.40;3.10;;;;;;;;;;5039370;28;20477;-87
2022/04/10 14:40:51;;;;;;;7.03;3.47;;;;;;;;;;5036705;28;20488;-87
2022/04/10 14:43:17;;;;;;;4.50;2.77;;;;;;;;;;5037211;28;20476;-87
2022/04/10 14:45:43;;;;;;;3.33;2.80;;;;;;;;;;5039703;28;20431;-86
2022/04/10 14:48:09;;;;;;;5.07;2.90;;;;;;;;;;5039845;28;20399;-88